createdAt,value
2023-05-04T00:00:39.462Z,4.10
2023-05-04T00:05:28.879Z,4.57
2023-05-04T00:10:15.652Z,4.50
2023-05-04T00:15:05.422Z,4.40
2023-05-04T00:20:23.073Z,4.93
2023-05-04T00:25:27.163Z,5.17
2023-05-04T00:30:17.717Z,4.90
2023-05-04T00:35:01.850Z,4.63
2023-05-04T00:39:53.904Z,4.60
2023-05-04T00:44:41.401Z,4.77
2023-05-04T00:49:28.576Z,4.93
2023-05-04T00:54:19.420Z,4.50
2023-05-04T00:59:02.977Z,5.17
2023-05-04T01:04:08.086Z,4.30
2023-05-04T01:09:11.470Z,5.03
2023-05-04T01:14:03.076Z,5.10
2023-05-04T01:18:46.739Z,4.37
2023-05-04T01:23:36.945Z,4.60
2023-05-04T01:28:41.753Z,4.90
2023-05-04T01:33:29.879Z,5.47
2023-05-04T01:38:15.153Z,5.17
2023-05-04T01:43:21.284Z,4.97
2023-05-04T01:48:09.016Z,5.80
2023-05-04T01:52:55.702Z,5.33
2023-05-04T01:57:48.225Z,5.80
2023-05-04T02:02:33.807Z,5.97
2023-05-04T02:07:21.526Z,5.20
2023-05-04T02:12:07.148Z,5.00
2023-05-04T02:16:57.376Z,5.30
2023-05-04T02:21:43.151Z,4.80
2023-05-04T02:26:32.032Z,4.57
2023-05-04T02:31:21.460Z,5.20
2023-05-04T02:36:09.092Z,5.97
2023-05-04T02:41:11.678Z,5.50
2023-05-04T02:46:01.601Z,5.50
2023-05-04T02:50:47.690Z,5.90
2023-05-04T02:55:37.389Z,6.00
2023-05-04T03:00:26.038Z,6.10
2023-05-04T03:05:11.774Z,6.20
2023-05-04T03:10:02.047Z,5.83
2023-05-04T03:14:48.119Z,6.00
2023-05-04T03:19:36.611Z,5.97
2023-05-04T03:24:25.742Z,6.03
2023-05-04T03:29:13.007Z,5.50
2023-05-04T03:33:59.232Z,6.23
2023-05-04T03:38:48.304Z,5.70
2023-05-04T03:43:35.194Z,5.67
2023-05-04T03:48:27.887Z,6.90
2023-05-04T03:53:11.830Z,6.00
2023-05-04T03:58:13.108Z,6.20
2023-05-04T04:03:07.416Z,6.37
2023-05-04T04:07:52.193Z,5.80
2023-05-04T04:12:40.390Z,5.90
2023-05-04T04:17:46.587Z,6.40
2023-05-04T04:22:31.766Z,6.00
2023-05-04T04:27:19.950Z,5.73
2023-05-04T04:32:07.153Z,6.03
2023-05-04T04:37:09.759Z,5.73
2023-05-04T04:42:03.260Z,4.70
2023-05-04T04:46:47.460Z,4.60
2023-05-04T04:51:38.063Z,5.13
2023-05-04T04:56:26.920Z,5.30
2023-05-04T05:01:18.114Z,4.47
2023-05-04T05:06:15.404Z,4.20
2023-05-04T05:11:02.777Z,4.17
2023-05-04T05:15:57.228Z,4.50
2023-05-04T05:20:40.851Z,4.10
2023-05-04T05:25:30.472Z,4.10
2023-05-04T05:30:15.866Z,4.10
2023-05-04T05:35:04.697Z,3.97
2023-05-04T05:39:51.401Z,4.23
2023-05-04T05:44:42.317Z,3.67
2023-05-04T05:49:28.737Z,3.73
2023-05-04T05:54:16.641Z,4.00
2023-05-04T05:59:03.122Z,3.10
2023-05-04T06:03:52.717Z,3.70
2023-05-04T06:08:43.014Z,3.37
2023-05-04T06:13:28.201Z,3.50
2023-05-04T06:18:14.125Z,4.57
2023-05-04T06:23:02.501Z,4.37
2023-05-04T06:27:52.518Z,3.83
2023-05-04T06:32:40.342Z,3.80
2023-05-04T06:37:29.898Z,4.27
2023-05-04T06:42:15.342Z,3.90
2023-05-04T06:47:01.503Z,3.80
2023-05-04T06:51:51.588Z,3.17
2023-05-04T06:56:38.543Z,3.40
2023-05-04T07:01:27.508Z,3.77
2023-05-04T07:06:14.107Z,3.53
2023-05-04T07:11:06.815Z,3.83
2023-05-04T07:15:50.145Z,3.33
2023-05-04T07:20:39.072Z,3.80
2023-05-04T07:25:28.891Z,3.70
2023-05-04T07:30:14.633Z,3.47
2023-05-04T07:35:04.158Z,3.43
2023-05-04T07:39:54.046Z,3.07
2023-05-04T07:44:39.722Z,3.10
2023-05-04T07:49:27.564Z,3.23
2023-05-04T07:54:22.000Z,3.20
2023-05-04T07:59:06.695Z,3.20
2023-05-04T08:03:52.963Z,3.10
2023-05-04T08:08:41.050Z,3.33
2023-05-04T08:13:30.594Z,2.73
2023-05-04T08:18:17.912Z,2.47
2023-05-04T08:23:03.897Z,3.40
2023-05-04T08:27:51.905Z,2.83
2023-05-04T08:32:41.288Z,3.00
2023-05-04T08:37:28.007Z,3.30
2023-05-04T08:42:38.535Z,2.77
2023-05-04T08:47:48.807Z,2.70
2023-05-04T08:52:36.558Z,2.43
2023-05-04T08:57:27.515Z,2.60
2023-05-04T09:02:19.901Z,2.53
2023-05-04T09:07:04.689Z,2.30
2023-05-04T09:11:53.861Z,2.30
2023-05-04T09:16:40.937Z,2.03
2023-05-04T09:21:30.609Z,2.20
2023-05-04T09:26:15.762Z,2.40
2023-05-04T09:31:03.183Z,2.43
2023-05-04T09:35:52.821Z,2.07
2023-05-04T09:40:41.483Z,2.23
2023-05-04T09:45:40.844Z,2.50
2023-05-04T09:50:35.632Z,2.00
2023-05-04T09:55:20.567Z,2.10
2023-05-04T10:00:04.936Z,2.20
2023-05-04T10:05:01.683Z,2.10
2023-05-04T10:09:49.248Z,2.17
2023-05-04T10:14:33.793Z,2.67
2023-05-04T10:19:54.105Z,2.20
2023-05-04T10:25:12.289Z,2.05
2023-05-04T10:30:02.960Z,2.00
2023-05-04T10:34:47.576Z,2.47
2023-05-04T10:39:37.444Z,1.98
2023-05-04T10:44:37.838Z,2.50
2023-05-04T10:49:30.512Z,2.20
2023-05-04T10:54:19.829Z,2.13
2023-05-04T10:59:21.278Z,2.40
2023-05-04T11:04:08.761Z,1.85
2023-05-04T11:09:00.831Z,1.65
2023-05-04T11:13:46.527Z,2.28
2023-05-04T11:18:34.330Z,2.40
2023-05-04T11:23:19.940Z,1.88
2023-05-04T11:28:09.542Z,2.13
2023-05-04T11:33:00.654Z,1.95
2023-05-04T11:37:46.358Z,2.33
2023-05-04T11:42:31.559Z,2.40
2023-05-04T11:47:35.997Z,2.33
2023-05-04T11:52:25.950Z,2.50
2023-05-04T11:57:26.680Z,2.38
2023-05-04T12:02:18.570Z,2.17
2023-05-04T12:07:09.338Z,2.00
2023-05-04T12:11:56.873Z,2.47
2023-05-04T12:16:43.274Z,1.90
2023-05-04T12:21:28.593Z,1.90
2023-05-04T12:26:19.786Z,2.20
2023-05-04T12:31:04.727Z,2.42
2023-05-04T12:35:51.253Z,2.25
2023-05-04T12:40:39.518Z,2.55
2023-05-04T12:45:32.410Z,2.47
2023-05-04T12:50:16.359Z,2.30
2023-05-04T12:55:03.157Z,2.80
2023-05-04T13:00:10.005Z,2.17
2023-05-04T13:04:59.668Z,2.20
2023-05-04T13:09:43.192Z,2.33
2023-05-04T13:19:34.920Z,2.75
2023-05-04T13:24:39.581Z,2.35
2023-05-04T13:29:27.936Z,2.15
2023-05-04T13:34:16.257Z,2.20
2023-05-04T13:39:03.843Z,2.10
2023-05-04T13:43:56.260Z,1.92
2023-05-04T13:48:44.001Z,2.00
2023-05-04T13:53:46.220Z,2.92
2023-05-04T13:58:55.741Z,2.05
2023-05-04T14:03:41.452Z,2.28
2023-05-04T14:08:29.197Z,1.90
2023-05-04T14:13:14.964Z,2.30
2023-05-04T14:18:03.895Z,1.90
2023-05-04T14:22:53.900Z,1.98
2023-05-04T14:27:41.771Z,2.30
2023-05-04T14:32:28.367Z,1.85
2023-05-04T14:37:22.400Z,1.92
2023-05-04T14:42:18.309Z,1.83
2023-05-04T14:47:08.028Z,1.90
2023-05-04T14:51:56.741Z,1.80
2023-05-04T14:56:43.083Z,1.63
2023-05-04T15:01:32.125Z,1.73
2023-05-04T15:06:21.988Z,1.90
2023-05-04T15:11:08.358Z,2.10
2023-05-04T15:15:56.812Z,1.80
2023-05-04T15:20:46.267Z,1.83
2023-05-04T15:25:31.630Z,2.08
2023-05-04T15:30:21.318Z,1.85
2023-05-04T15:35:09.029Z,2.20
2023-05-04T15:39:56.560Z,2.22
2023-05-04T15:44:45.877Z,3.10
2023-05-04T15:49:31.520Z,2.03
2023-05-04T15:54:23.792Z,2.30
2023-05-04T15:59:07.260Z,1.58
2023-05-04T16:03:56.536Z,2.40
2023-05-04T16:08:45.909Z,1.87
2023-05-04T16:13:30.993Z,2.03
2023-05-04T16:18:23.474Z,2.23
2023-05-04T16:23:07.101Z,2.10
2023-05-04T16:27:58.204Z,1.80
2023-05-04T16:32:48.053Z,2.07
2023-05-04T16:37:31.499Z,2.40
2023-05-04T16:42:19.557Z,2.17
2023-05-04T16:47:08.259Z,2.37
2023-05-04T16:51:55.886Z,1.90
2023-05-04T16:56:45.528Z,2.50
2023-05-04T17:01:31.648Z,2.43
2023-05-04T17:06:20.997Z,2.07
2023-05-04T17:11:08.799Z,2.30
2023-05-04T17:15:55.507Z,2.63
2023-05-04T17:20:44.185Z,1.90
2023-05-04T17:25:30.937Z,3.00
2023-05-04T17:30:18.957Z,2.37
2023-05-04T17:35:20.221Z,3.17
2023-05-04T17:40:10.887Z,4.50
2023-05-04T17:44:59.668Z,2.20
2023-05-04T17:49:47.563Z,2.20
2023-05-04T17:54:37.201Z,1.87
2023-05-04T17:59:22.294Z,2.23
2023-05-04T18:04:11.845Z,2.47
2023-05-04T18:09:02.402Z,2.97
2023-05-04T18:13:47.971Z,2.30
2023-05-04T18:18:40.720Z,2.57
2023-05-04T18:23:24.674Z,2.17
2023-05-04T18:28:17.621Z,2.30
2023-05-04T18:33:01.894Z,2.80
2023-05-04T18:37:52.090Z,3.10
2023-05-04T18:43:07.229Z,2.67
2023-05-04T18:47:57.658Z,2.53
2023-05-04T18:53:04.489Z,2.90
2023-05-04T18:57:50.647Z,2.60
2023-05-04T19:02:52.125Z,2.57
2023-05-04T19:07:56.040Z,2.47
2023-05-04T19:12:44.561Z,2.70
2023-05-04T19:17:31.264Z,3.10
2023-05-04T19:22:24.206Z,2.20
2023-05-04T19:27:09.691Z,2.43
2023-05-04T19:31:57.342Z,2.70
2023-05-04T19:36:45.198Z,2.40
2023-05-04T19:41:36.505Z,2.63
2023-05-04T19:46:22.082Z,2.87
2023-05-04T19:51:07.514Z,2.70
2023-05-04T19:55:57.374Z,2.67
2023-05-04T20:00:45.605Z,3.13
2023-05-04T20:05:34.512Z,3.27
2023-05-04T20:10:21.715Z,3.03
2023-05-04T20:15:09.237Z,2.90
2023-05-04T20:19:56.091Z,3.30
2023-05-04T20:24:58.902Z,3.07
2023-05-04T20:29:48.608Z,3.73
2023-05-04T20:34:35.784Z,3.23
2023-05-04T20:39:24.673Z,3.83
2023-05-04T20:44:12.647Z,4.00
2023-05-04T20:49:03.004Z,3.93
2023-05-04T20:53:48.607Z,3.30
2023-05-04T20:58:38.849Z,3.23
2023-05-04T21:03:56.084Z,3.20
2023-05-04T21:08:43.610Z,2.90
2023-05-04T21:13:36.729Z,2.60
2023-05-04T21:18:20.237Z,2.63
2023-05-04T21:23:08.358Z,2.27
2023-05-04T21:27:58.450Z,2.97
2023-05-04T21:32:44.165Z,2.50
2023-05-04T21:37:31.362Z,2.27
2023-05-04T21:42:20.963Z,2.73
2023-05-04T21:47:08.445Z,2.20
2023-05-04T21:51:55.271Z,2.50
2023-05-04T21:56:48.089Z,3.20
2023-05-04T22:01:31.596Z,3.07
2023-05-04T22:06:53.631Z,3.00
2023-05-04T22:11:40.531Z,2.70
2023-05-04T22:16:27.048Z,3.10
2023-05-04T22:21:19.917Z,3.20
2023-05-04T22:26:03.498Z,2.90
2023-05-04T22:30:56.062Z,2.90
2023-05-04T22:35:39.714Z,3.17
2023-05-04T22:40:28.406Z,2.83
2023-05-04T22:45:19.317Z,2.93
2023-05-04T22:50:19.847Z,2.97
2023-05-04T22:55:09.390Z,3.20
2023-05-04T22:59:56.770Z,2.93
2023-05-04T23:04:46.260Z,2.93
2023-05-04T23:09:31.065Z,2.67
2023-05-04T23:14:39.750Z,2.40
2023-05-04T23:19:23.145Z,2.90
2023-05-04T23:24:11.428Z,3.23
2023-05-04T23:29:06.626Z,4.40
2023-05-04T23:34:04.965Z,5.23
2023-05-04T23:38:51.994Z,8.20
2023-05-04T23:43:39.546Z,11.23
2023-05-04T23:49:06.409Z,12.60
2023-05-04T23:53:51.797Z,10.00
2023-05-04T23:58:36.272Z,7.00
